Time;durP1;ratioP1;P1;durP2;ratioP2;P2;SDS_P1;SDS_P2;PMS_P1;PMS_P2;Temp;Humidity;BMP_temperature;BMP_pressure;BME280_temperature;BME280_humidity;BME280_pressure;Samples;Min_cycle;Max_cycle;Signal;HPM_P1;HPM_P2
2022/06/30 00:02:09;;;;;;;;;;;23.50;47.50;;;;;;6221373;23;19942;-91
2022/06/30 00:04:35;;;;;;;;;;;23.60;47.60;;;;;;6222085;23;20330;-91
2022/06/30 00:07:00;;;;;;;;;;;23.70;47.60;;;;;;6224842;23;19914;-91
2022/06/30 00:09:26;;;;;;;;;;;23.80;47.60;;;;;;6225230;23;19918;-91
2022/06/30 00:11:51;;;;;;;;;;;23.80;47.40;;;;;;6249947;23;20259;-91
2022/06/30 00:14:17;;;;;;;;;;;23.80;47.40;;;;;;6249251;23;19911;-91
2022/06/30 00:16:42;;;;;;;;;;;23.90;47.20;;;;;;6196754;23;19912;-91
2022/06/30 00:19:08;;;;;;;;;;;23.90;47.00;;;;;;6249551;23;20241;-90
2022/06/30 00:21:36;;;;;;;;;;;23.90;46.90;;;;;;6221878;23;19919;-90
2022/06/30 00:24:02;;;;;;;;;;;23.90;46.90;;;;;;6224579;23;19910;-91
2022/06/30 00:26:28;;;;;;;;;;;23.80;46.80;;;;;;6251000;23;20241;-92
2022/06/30 00:28:53;;;;;;;;;;;23.80;46.80;;;;;;6225129;23;19904;-91
2022/06/30 00:31:19;;;;;;;;;;;23.80;46.80;;;;;;6224274;23;19911;-91
2022/06/30 00:33:44;;;;;;;;;;;23.80;47.20;;;;;;6223846;23;20437;-90
2022/06/30 00:36:10;;;;;;;;;;;23.80;47.10;;;;;;6249239;23;19919;-91
2022/06/30 00:38:37;;;;;;;;;;;23.80;46.90;;;;;;6222388;23;19914;-91
2022/06/30 00:41:03;;;;;;;;;;;23.80;46.80;;;;;;6223376;23;19915;-91
2022/06/30 00:43:29;;;;;;;;;;;23.80;46.70;;;;;;6224500;23;19926;-91
2022/06/30 00:45:54;;;;;;;;;;;23.70;46.60;;;;;;6224366;23;19912;-91
2022/06/30 00:48:20;;;;;;;;;;;23.70;46.50;;;;;;6224049;23;19892;-91
2022/06/30 00:50:45;;;;;;;;;;;23.70;46.30;;;;;;6223328;23;20321;-91
2022/06/30 00:53:11;;;;;;;;;;;23.60;46.30;;;;;;6221647;23;19907;-91
2022/06/30 00:55:38;;;;;;;;;;;23.50;46.30;;;;;;6248665;23;19918;-90
2022/06/30 00:58:05;;;;;;;;;;;23.50;46.40;;;;;;6223725;23;19916;-90
2022/06/30 01:00:39;;;;;;;;;;;23.40;46.50;;;;;;6222766;23;19911;-91
2022/06/30 01:03:05;;;;;;;;;;;23.40;46.50;;;;;;6222947;23;20339;-91
2022/06/30 01:05:31;;;;;;;;;;;23.30;46.40;;;;;;6220144;23;19912;-91
2022/06/30 01:07:56;;;;;;;;;;;23.30;46.50;;;;;;6248456;23;19908;-91
2022/06/30 01:13:06;;;;;;;;;;;23.20;46.50;;;;;;6248295;23;19957;-91
2022/06/30 01:15:32;;;;;;;;;;;23.10;46.70;;;;;;6248009;22;20300;-91
2022/06/30 01:17:57;;;;;;;;;;;23.10;46.90;;;;;;6247649;23;20049;-92
2022/06/30 01:20:27;;;;;;;;;;;23.10;47.10;;;;;;6221796;23;19916;-91
2022/06/30 01:22:52;;;;;;;;;;;23.10;47.10;;;;;;6221392;23;20324;-91
2022/06/30 01:25:18;;;;;;;;;;;23.00;47.30;;;;;;6221258;23;19909;-91
2022/06/30 01:27:43;;;;;;;;;;;23.00;47.50;;;;;;6221419;23;19908;-91
2022/06/30 01:30:10;;;;;;;;;;;22.90;47.60;;;;;;6222119;23;20307;-91
2022/06/30 01:32:36;;;;;;;;;;;22.80;47.60;;;;;;6221120;23;19915;-91
2022/06/30 01:35:01;;;;;;;;;;;22.80;47.60;;;;;;6221375;23;19952;-91
2022/06/30 01:37:42;;;;;;;;;;;22.70;47.90;;;;;;6247670;23;20301;-91
2022/06/30 01:40:08;;;;;;;;;;;22.60;48.10;;;;;;6220735;23;19904;-92
2022/06/30 01:42:33;;;;;;;;;;;22.60;48.60;;;;;;6220159;23;19934;-91
2022/06/30 01:44:59;;;;;;;;;;;22.50;49.00;;;;;;6247547;23;19919;-91
2022/06/30 01:47:24;;;;;;;;;;;22.50;49.30;;;;;;6220338;23;19908;-91
2022/06/30 01:49:50;;;;;;;;;;;22.40;49.50;;;;;;6220527;23;19907;-92
2022/06/30 01:52:15;;;;;;;;;;;22.30;49.30;;;;;;6220523;23;19903;-91
2022/06/30 01:54:43;;;;;;;;;;;22.40;49.40;;;;;;6221074;23;19914;-91
2022/06/30 01:57:09;;;;;;;;;;;22.30;49.60;;;;;;6220397;23;19923;-91
2022/06/30 01:59:34;;;;;;;;;;;22.30;49.60;;;;;;6220538;23;20321;-91
2022/06/30 02:01:59;;;;;;;;;;;22.30;49.80;;;;;;6220335;23;19903;-91
2022/06/30 02:07:09;;;;;;;;;;;22.30;49.70;;;;;;6247589;23;20007;-91
2022/06/30 02:09:35;;;;;;;;;;;22.20;50.00;;;;;;6220715;23;19911;-92
2022/06/30 02:14:44;;;;;;;;;;;22.20;49.90;;;;;;6246928;23;19918;-92
2022/06/30 02:17:10;;;;;;;;;;;22.10;50.10;;;;;;6246067;22;20244;-91
2022/06/30 02:19:35;;;;;;;;;;;22.10;50.30;;;;;;6246798;23;20224;-91
2022/06/30 02:22:01;;;;;;;;;;;22.00;50.10;;;;;;6221072;23;20305;-91
2022/06/30 02:24:26;;;;;;;;;;;22.00;50.20;;;;;;6247256;23;20221;-91
2022/06/30 02:26:52;;;;;;;;;;;22.00;50.00;;;;;;6219783;23;19914;-91
2022/06/30 02:29:17;;;;;;;;;;;22.00;49.80;;;;;;6219403;23;19935;-91
2022/06/30 02:31:42;;;;;;;;;;;21.90;49.70;;;;;;6247629;23;19986;-91
2022/06/30 02:34:08;;;;;;;;;;;21.80;49.50;;;;;;6222399;23;19912;-91
2022/06/30 02:36:33;;;;;;;;;;;21.80;49.50;;;;;;6247387;23;19998;-92
2022/06/30 02:38:59;;;;;;;;;;;21.80;49.50;;;;;;6220798;23;20331;-92
2022/06/30 02:41:25;;;;;;;;;;;21.70;49.80;;;;;;6247665;23;19910;-91
2022/06/30 02:43:51;;;;;;;;;;;21.70;49.70;;;;;;6220421;23;19935;-91
2022/06/30 02:46:17;;;;;;;;;;;21.70;49.70;;;;;;6220454;23;19954;-91
2022/06/30 02:48:43;;;;;;;;;;;21.70;49.60;;;;;;6219821;23;20316;-91
2022/06/30 02:51:09;;;;;;;;;;;21.60;49.60;;;;;;6220487;23;19903;-92
2022/06/30 02:53:34;;;;;;;;;;;21.60;49.60;;;;;;6247649;23;19926;-91
2022/06/30 02:56:00;;;;;;;;;;;21.50;49.70;;;;;;6221077;23;19939;-91
2022/06/30 02:58:25;;;;;;;;;;;21.50;49.70;;;;;;6220927;23;19939;-91
2022/06/30 03:00:51;;;;;;;;;;;21.40;49.80;;;;;;6219892;23;19918;-90
2022/06/30 03:03:16;;;;;;;;;;;21.40;49.80;;;;;;6220067;23;19916;-91
2022/06/30 03:05:42;;;;;;;;;;;21.30;49.80;;;;;;6220169;23;20308;-91
2022/06/30 03:08:07;;;;;;;;;;;21.30;50.00;;;;;;6220126;23;19934;-91
2022/06/30 03:10:33;;;;;;;;;;;21.30;50.80;;;;;;6247179;23;19903;-91
2022/06/30 03:12:59;;;;;;;;;;;21.30;51.50;;;;;;6220134;23;19915;-90
2022/06/30 03:15:24;;;;;;;;;;;21.30;52.10;;;;;;6219854;23;19989;-90
2022/06/30 03:17:50;;;;;;;;;;;21.30;52.10;;;;;;6247245;22;20006;-90
2022/06/30 03:20:15;;;;;;;;;;;21.30;51.80;;;;;;6219920;23;19973;-90
2022/06/30 03:22:41;;;;;;;;;;;21.30;51.60;;;;;;6219420;23;20217;-90
2022/06/30 03:25:07;;;;;;;;;;;21.30;51.50;;;;;;6220455;23;19922;-90
2022/06/30 03:27:33;;;;;;;;;;;21.20;51.40;;;;;;6220354;23;19920;-90
2022/06/30 03:29:58;;;;;;;;;;;21.30;51.40;;;;;;6218988;23;20323;-90
2022/06/30 03:32:24;;;;;;;;;;;21.30;51.70;;;;;;6218988;23;20005;-90
2022/06/30 03:34:49;;;;;;;;;;;21.30;51.70;;;;;;6246122;23;19908;-90
2022/06/30 03:37:15;;;;;;;;;;;21.30;51.80;;;;;;6219708;23;19911;-91
2022/06/30 03:39:40;;;;;;;;;;;21.30;51.80;;;;;;6221149;23;19931;-90
2022/06/30 03:42:06;;;;;;;;;;;21.40;51.80;;;;;;6221482;23;19908;-91
2022/06/30 03:44:31;;;;;;;;;;;21.50;51.70;;;;;;6248057;23;19950;-90
2022/06/30 03:46:57;;;;;;;;;;;21.50;51.70;;;;;;6220859;23;19903;-90
2022/06/30 03:49:23;;;;;;;;;;;21.70;51.80;;;;;;6220934;23;19907;-90
2022/06/30 03:51:48;;;;;;;;;;;21.80;52.00;;;;;;6248691;23;19979;-90
2022/06/30 03:54:13;;;;;;;;;;;22.00;52.20;;;;;;6221477;23;19903;-90
2022/06/30 03:56:39;;;;;;;;;;;22.20;52.40;;;;;;6221266;23;20347;-90
2022/06/30 03:59:04;;;;;;;;;;;22.40;52.50;;;;;;6221463;23;19916;-90
2022/06/30 04:01:30;;;;;;;;;;;22.70;52.60;;;;;;6248135;23;19912;-91
2022/06/30 04:03:55;;;;;;;;;;;22.90;52.60;;;;;;6247633;23;19943;-91
2022/06/30 04:06:23;;;;;;;;;;;23.20;52.50;;;;;;6248535;23;20623;-91
2022/06/30 04:08:48;;;;;;;;;;;23.40;52.40;;;;;;6221303;23;19912;-91
2022/06/30 04:11:14;;;;;;;;;;;23.80;52.40;;;;;;6221082;23;19998;-91
2022/06/30 04:13:39;;;;;;;;;;;24.10;52.20;;;;;;6221542;23;19911;-91
2022/06/30 04:16:05;;;;;;;;;;;24.50;51.90;;;;;;6248365;22;19931;-91
2022/06/30 04:18:30;;;;;;;;;;;24.80;51.60;;;;;;6221200;23;19943;-91
2022/06/30 04:20:56;;;;;;;;;;;25.30;51.10;;;;;;6248539;23;19957;-91
2022/06/30 04:23:21;;;;;;;;;;;25.70;50.50;;;;;;6221682;23;20026;-91
2022/06/30 04:25:47;;;;;;;;;;;26.00;49.80;;;;;;6221082;23;19908;-91
2022/06/30 04:28:12;;;;;;;;;;;26.20;48.90;;;;;;6247927;23;19934;-91
2022/06/30 04:33:22;;;;;;;;;;;26.30;47.20;;;;;;6248205;23;19934;-90
2022/06/30 04:35:47;;;;;;;;;;;26.30;46.80;;;;;;6220968;23;19908;-90
2022/06/30 04:38:13;;;;;;;;;;;26.20;46.60;;;;;;6247712;23;19935;-90
2022/06/30 04:43:23;;;;;;;;;;;26.10;46.30;;;;;;6247881;23;20038;-91
2022/06/30 04:45:48;;;;;;;;;;;25.90;46.40;;;;;;6221307;23;19903;-91
2022/06/30 04:48:13;;;;;;;;;;;25.90;46.40;;;;;;6220646;23;19918;-90
2022/06/30 04:50:40;;;;;;;;;;;25.80;46.50;;;;;;6220615;23;19954;-90
2022/06/30 04:53:08;;;;;;;;;;;25.80;46.60;;;;;;6220551;23;20324;-91
2022/06/30 04:55:34;;;;;;;;;;;25.80;46.60;;;;;;6220850;23;19986;-91
2022/06/30 04:57:59;;;;;;;;;;;25.80;46.50;;;;;;6246989;23;19989;-90
2022/06/30 05:00:25;;;;;;;;;;;25.70;46.60;;;;;;6220382;23;19919;-91
2022/06/30 05:02:51;;;;;;;;;;;25.70;46.50;;;;;;6221172;23;19948;-90
2022/06/30 05:05:17;;;;;;;;;;;25.70;46.60;;;;;;6248170;23;20280;-90
2022/06/30 05:07:42;;;;;;;;;;;25.70;46.70;;;;;;6249253;23;19983;-90
2022/06/30 05:10:08;;;;;;;;;;;25.80;46.70;;;;;;6221284;23;20486;-90
2022/06/30 05:12:33;;;;;;;;;;;25.80;46.70;;;;;;6247258;23;19908;-91
2022/06/30 05:14:59;;;;;;;;;;;26.00;46.80;;;;;;6220397;23;19908;-90
2022/06/30 05:17:24;;;;;;;;;;;26.20;46.70;;;;;;6246968;22;20002;-91
2022/06/30 05:19:50;;;;;;;;;;;26.30;46.60;;;;;;6221034;23;19919;-90
2022/06/30 05:22:15;;;;;;;;;;;26.40;46.50;;;;;;6247926;23;19904;-90
2022/06/30 05:27:25;;;;;;;;;;;26.70;46.10;;;;;;6248533;23;19915;-90
2022/06/30 05:29:50;;;;;;;;;;;26.80;46.00;;;;;;6221145;23;19912;-90
2022/06/30 05:32:16;;;;;;;;;;;27.00;45.90;;;;;;6195200;23;19911;-91
2022/06/30 05:34:41;;;;;;;;;;;27.10;45.80;;;;;;6221006;23;19959;-91
2022/06/30 05:37:07;;;;;;;;;;;27.20;45.70;;;;;;6248095;23;19950;-90
2022/06/30 05:39:33;;;;;;;;;;;27.40;45.50;;;;;;6221192;23;19914;-91
2022/06/30 05:41:59;;;;;;;;;;;27.50;45.30;;;;;;6221158;23;19915;-90
2022/06/30 05:44:24;;;;;;;;;;;27.60;45.20;;;;;;6246374;23;20235;-91
2022/06/30 05:46:50;;;;;;;;;;;27.70;45.00;;;;;;6220097;23;19943;-90
2022/06/30 05:49:16;;;;;;;;;;;27.80;44.80;;;;;;6220272;23;19907;-91
2022/06/30 05:51:41;;;;;;;;;;;27.90;45.30;;;;;;6220589;23;19938;-91
2022/06/30 05:54:07;;;;;;;;;;;28.10;45.00;;;;;;6221685;23;20335;-91
2022/06/30 05:56:32;;;;;;;;;;;28.30;44.60;;;;;;6220398;23;19912;-91
2022/06/30 05:58:58;;;;;;;;;;;28.30;44.30;;;;;;6222895;23;19977;-91
2022/06/30 06:01:23;;;;;;;;;;;28.30;44.70;;;;;;6249598;23;19935;-89
2022/06/30 06:03:49;;;;;;;;;;;28.70;45.30;;;;;;6223546;23;19913;-89
2022/06/30 06:06:14;;;;;;;;;;;29.10;45.50;;;;;;6223180;23;19904;-91
2022/06/30 06:08:42;;;;;;;;;;;29.70;45.40;;;;;;6249477;23;19913;-90
2022/06/30 06:11:08;;;;;;;;;;;30.20;44.10;;;;;;6223957;23;19903;-90
2022/06/30 06:13:33;;;;;;;;;;;30.80;42.50;;;;;;6222850;23;19915;-89
2022/06/30 06:15:59;;;;;;;;;;;31.40;41.40;;;;;;6221022;23;19907;-91
2022/06/30 06:18:24;;;;;;;;;;;32.00;40.60;;;;;;6221830;23;20372;-90
2022/06/30 06:20:50;;;;;;;;;;;32.50;39.50;;;;;;6222128;23;19911;-90
2022/06/30 06:23:15;;;;;;;;;;;33.00;38.40;;;;;;6221419;23;19947;-90
2022/06/30 06:25:40;;;;;;;;;;;33.40;37.80;;;;;;6220117;23;20324;-91
2022/06/30 06:30:54;;;;;;;;;;;34.70;36.30;;;;;;6205612;23;19935;-91
2022/06/30 06:33:20;;;;;;;;;;;35.30;35.10;;;;;;6220297;23;20228;-90
2022/06/30 06:35:45;;;;;;;;;;;35.80;34.40;;;;;;6218666;23;19908;-90
2022/06/30 06:38:11;;;;;;;;;;;36.20;33.20;;;;;;6229476;23;19916;-90
2022/06/30 06:40:36;;;;;;;;;;;36.40;32.20;;;;;;6233145;23;19915;-90
2022/06/30 06:43:02;;;;;;;;;;;36.60;31.80;;;;;;6223383;23;20333;-89
2022/06/30 06:45:31;;;;;;;;;;;36.80;31.40;;;;;;6221872;23;20374;-88
2022/06/30 06:47:56;;;;;;;;;;;37.10;31.50;;;;;;6222690;23;19987;-89
2022/06/30 06:50:22;;;;;;;;;;;37.60;31.80;;;;;;6249487;23;19915;-89
2022/06/30 06:52:47;;;;;;;;;;;38.20;31.50;;;;;;6249120;23;19958;-90
2022/06/30 06:55:20;;;;;;;;;;;38.70;30.40;;;;;;6221289;23;19907;-91
2022/06/30 06:57:46;;;;;;;;;;;39.20;29.50;;;;;;6226453;23;20244;-90
2022/06/30 07:00:12;;;;;;;;;;;39.60;29.00;;;;;;6228682;23;19907;-90
2022/06/30 07:02:43;;;;;;;;;;;40.00;28.60;;;;;;6226628;23;19951;-91
2022/06/30 07:05:08;;;;;;;;;;;40.30;27.70;;;;;;6223432;23;19908;-91
2022/06/30 07:07:34;;;;;;;;;;;40.60;27.80;;;;;;6249097;23;19953;-91
2022/06/30 07:10:00;;;;;;;;;;;40.80;27.10;;;;;;6224707;23;19908;-91
2022/06/30 07:12:26;;;;;;;;;;;41.20;27.20;;;;;;6248137;23;19954;-91
2022/06/30 07:14:51;;;;;;;;;;;41.60;26.80;;;;;;6224765;23;19907;-91
2022/06/30 07:17:17;;;;;;;;;;;41.90;26.30;;;;;;6222348;23;19919;-91
2022/06/30 07:19:42;;;;;;;;;;;42.10;25.60;;;;;;6222848;23;19919;-90
2022/06/30 07:22:08;;;;;;;;;;;42.30;25.10;;;;;;6250983;23;19923;-91
2022/06/30 07:24:34;;;;;;;;;;;42.30;25.30;;;;;;6222228;23;19914;-91
2022/06/30 07:27:00;;;;;;;;;;;42.70;25.10;;;;;;6248926;23;19912;-90
2022/06/30 07:29:26;;;;;;;;;;;42.80;24.90;;;;;;6247660;23;19907;-90
2022/06/30 07:31:52;;;;;;;;;;;43.10;24.50;;;;;;6219995;23;19921;-90
2022/06/30 07:34:18;;;;;;;;;;;43.30;24.20;;;;;;6248135;23;19907;-90
2022/06/30 07:36:43;;;;;;;;;;;43.50;24.00;;;;;;6247051;23;20297;-90
2022/06/30 07:39:09;;;;;;;;;;;43.60;23.70;;;;;;6226249;23;20340;-93
2022/06/30 07:41:34;;;;;;;;;;;43.80;23.80;;;;;;6225902;23;19951;-94
2022/06/30 07:44:03;;;;;;;;;;;43.80;23.40;;;;;;6224764;23;19907;-94
2022/06/30 07:46:29;;;;;;;;;;;43.90;23.40;;;;;;6253210;23;19919;-94
2022/06/30 07:48:54;;;;;;;;;;;44.00;23.20;;;;;;6225914;23;20324;-95
2022/06/30 07:51:20;;;;;;;;;;;44.30;23.30;;;;;;6254998;23;19922;-95
2022/06/30 07:53:46;;;;;;;;;;;44.40;23.00;;;;;;6225454;23;19908;-93
2022/06/30 07:56:12;;;;;;;;;;;44.50;23.00;;;;;;6225437;23;19959;-94
2022/06/30 07:58:38;;;;;;;;;;;44.70;23.00;;;;;;6231537;23;19915;-95
2022/06/30 08:01:03;;;;;;;;;;;44.90;23.10;;;;;;6259383;23;19955;-93
2022/06/30 08:03:29;;;;;;;;;;;45.30;22.60;;;;;;6234888;23;20303;-96
2022/06/30 08:05:55;;;;;;;;;;;45.50;22.30;;;;;;6262395;23;19915;-94
2022/06/30 08:08:20;;;;;;;;;;;45.70;22.00;;;;;;6236313;23;19911;-94
2022/06/30 08:10:48;;;;;;;;;;;45.70;21.60;;;;;;6235041;23;20081;-95
2022/06/30 08:13:16;;;;;;;;;;;45.70;21.80;;;;;;6234958;23;19934;-93
2022/06/30 08:15:42;;;;;;;;;;;45.90;21.90;;;;;;6234617;22;19923;-95
2022/06/30 08:18:07;;;;;;;;;;;46.20;21.80;;;;;;6235527;23;19998;-95
2022/06/30 08:20:34;;;;;;;;;;;46.30;21.30;;;;;;6234539;23;19915;-93
2022/06/30 08:22:59;;;;;;;;;;;46.10;21.10;;;;;;6235240;23;19918;-95
2022/06/30 08:25:25;;;;;;;;;;;46.20;21.60;;;;;;6235235;23;19912;-94
2022/06/30 08:27:51;;;;;;;;;;;46.40;21.40;;;;;;6233844;23;19946;-95
2022/06/30 08:30:16;;;;;;;;;;;46.60;21.00;;;;;;6262593;23;20315;-94
2022/06/30 08:32:43;;;;;;;;;;;46.90;21.00;;;;;;6229760;23;20313;-94
2022/06/30 08:35:08;;;;;;;;;;;47.10;20.80;;;;;;6228633;23;19912;-93
2022/06/30 08:37:34;;;;;;;;;;;47.30;20.90;;;;;;6227523;23;19927;-94
2022/06/30 08:42:45;;;;;;;;;;;47.80;20.10;;;;;;6251787;23;19954;-94
2022/06/30 08:45:17;;;;;;;;;;;48.10;20.30;;;;;;6225917;23;19915;-95
2022/06/30 08:47:42;;;;;;;;;;;48.10;19.50;;;;;;6253247;23;19930;-94
2022/06/30 08:50:09;;;;;;;;;;;47.90;19.50;;;;;;6226274;23;20301;-93
2022/06/30 08:52:40;;;;;;;;;;;48.00;19.50;;;;;;6223480;23;19904;-94
2022/06/30 08:55:06;;;;;;;;;;;48.00;19.50;;;;;;6223925;23;19937;-94
2022/06/30 08:57:32;;;;;;;;;;;48.20;19.30;;;;;;6223483;23;20336;-94
2022/06/30 08:59:58;;;;;;;;;;;48.30;19.10;;;;;;6223399;23;19914;-94
2022/06/30 09:02:23;;;;;;;;;;;48.40;19.00;;;;;;6197021;23;19994;-94
2022/06/30 09:04:49;;;;;;;;;;;48.40;18.90;;;;;;6251614;23;19907;-94
2022/06/30 09:07:14;;;;;;;;;;;48.50;19.00;;;;;;6252493;23;19994;-94
2022/06/30 09:09:40;;;;;;;;;;;48.70;19.20;;;;;;6250587;23;20006;-95
2022/06/30 09:12:13;;;;;;;;;;;48.80;18.90;;;;;;6220796;23;19912;-95
2022/06/30 09:14:40;;;;;;;;;;;48.90;18.60;;;;;;6222375;23;19938;-94
2022/06/30 09:17:12;;;;;;;;;;;48.80;18.40;;;;;;6249708;22;19935;-94
2022/06/30 09:19:50;;;;;;;;;;;48.70;18.30;;;;;;6221909;23;19969;-94
2022/06/30 09:22:16;;;;;;;;;;;48.60;18.70;;;;;;6223029;23;19907;-94
2022/06/30 09:24:42;;;;;;;;;;;48.80;18.90;;;;;;6249935;23;19911;-94
2022/06/30 09:27:19;;;;;;;;;;;49.20;18.70;;;;;;6252361;23;19911;-94
2022/06/30 09:29:58;;;;;;;;;;;49.60;18.50;;;;;;6225430;23;19904;-94
2022/06/30 09:32:23;;;;;;;;;;;49.90;18.30;;;;;;6249653;23;19920;-96
2022/06/30 09:34:50;;;;;;;;;;;50.10;17.80;;;;;;6223771;23;19917;-94
2022/06/30 09:37:16;;;;;;;;;;;49.80;17.80;;;;;;6223536;23;20293;-95
2022/06/30 09:39:43;;;;;;;;;;;49.80;17.50;;;;;;6223274;23;19908;-93
2022/06/30 09:42:10;;;;;;;;;;;49.80;17.70;;;;;;6222511;23;19911;-94
2022/06/30 09:44:36;;;;;;;;;;;49.90;17.70;;;;;;6224086;23;19911;-93
2022/06/30 09:47:02;;;;;;;;;;;50.10;17.70;;;;;;6224365;23;19918;-94
2022/06/30 09:49:32;;;;;;;;;;;50.40;17.70;;;;;;6224105;23;19964;-96
2022/06/30 09:51:59;;;;;;;;;;;50.80;17.60;;;;;;6224556;23;19908;-94
2022/06/30 09:54:26;;;;;;;;;;;51.10;17.50;;;;;;6225828;23;19919;-94
2022/06/30 09:57:00;;;;;;;;;;;51.40;17.40;;;;;;6222332;23;19958;-94
2022/06/30 09:59:26;;;;;;;;;;;51.70;17.20;;;;;;6248660;23;19915;-95
2022/06/30 10:01:55;;;;;;;;;;;52.00;17.00;;;;;;6223478;23;19914;-94
2022/06/30 10:04:20;;;;;;;;;;;52.20;16.40;;;;;;6250573;23;19926;-94
2022/06/30 10:06:46;;;;;;;;;;;52.20;16.00;;;;;;6223624;23;19986;-94
2022/06/30 10:09:14;;;;;;;;;;;52.10;15.80;;;;;;6251858;23;19911;-94
2022/06/30 10:11:40;;;;;;;;;;;51.90;15.90;;;;;;6223341;23;19903;-94
2022/06/30 10:14:07;;;;;;;;;;;52.00;16.30;;;;;;6224109;23;19972;-95
2022/06/30 10:16:33;;;;;;;;;;;52.10;16.00;;;;;;6222072;23;20279;-95
2022/06/30 10:18:59;;;;;;;;;;;52.00;15.60;;;;;;6222512;23;20324;-94
2022/06/30 10:21:25;;;;;;;;;;;52.10;15.60;;;;;;6222990;23;19995;-94
2022/06/30 10:23:51;;;;;;;;;;;52.10;15.50;;;;;;6223367;23;19980;-94
2022/06/30 10:29:01;;;;;;;;;;;52.00;15.50;;;;;;6250597;23;19923;-94
2022/06/30 10:31:34;;;;;;;;;;;52.00;15.70;;;;;;6224158;22;19900;-94
2022/06/30 10:34:00;;;;;;;;;;;52.10;15.30;;;;;;6229903;23;19916;-94
2022/06/30 10:36:29;;;;;;;;;;;51.90;15.30;;;;;;6255185;23;19907;-94
2022/06/30 10:39:14;;;;;;;;;;;51.80;15.30;;;;;;6227331;23;19916;-95
2022/06/30 10:41:44;;;;;;;;;;;51.70;15.40;;;;;;6222545;23;19907;-93
2022/06/30 10:44:12;;;;;;;;;;;51.90;15.40;;;;;;6222067;23;20297;-95
2022/06/30 10:46:58;;;;;;;;;;;52.20;15.50;;;;;;6227017;23;19923;-94
2022/06/30 10:49:24;;;;;;;;;;;52.50;15.60;;;;;;6250285;23;20352;-95
2022/06/30 10:52:12;;;;;;;;;;;53.00;15.40;;;;;;6229925;23;19907;-95
2022/06/30 10:54:41;;;;;;;;;;;53.30;15.20;;;;;;6210200;23;19915;-94
2022/06/30 10:57:06;;;;;;;;;;;53.70;15.00;;;;;;6224593;23;19912;-94
2022/06/30 10:59:34;;;;;;;;;;;54.10;14.90;;;;;;6224321;23;19947;-95
2022/06/30 11:02:12;;;;;;;;;;;54.30;14.40;;;;;;6251673;23;20324;-94
2022/06/30 11:04:38;;;;;;;;;;;54.40;14.40;;;;;;6223987;23;19995;-94
2022/06/30 11:07:20;;;;;;;;;;;54.50;14.20;;;;;;6224337;23;19908;-94
2022/06/30 11:09:47;;;;;;;;;;;54.70;14.20;;;;;;6259040;23;19918;-94
2022/06/30 11:12:18;;;;;;;;;;;54.80;13.90;;;;;;6264191;23;20321;-95
2022/06/30 11:14:48;;;;;;;;;;;54.90;13.70;;;;;;6237311;23;19931;-93
2022/06/30 11:17:14;;;;;;;;;;;55.10;13.80;;;;;;6231536;23;19912;-95
2022/06/30 11:19:44;;;;;;;;;;;55.30;13.80;;;;;;6260108;23;19952;-94
2022/06/30 11:22:14;;;;;;;;;;;55.20;13.00;;;;;;6236805;23;19903;-94
2022/06/30 11:24:42;;;;;;;;;;;54.50;12.40;;;;;;6235142;23;19912;-95
2022/06/30 11:27:23;;;;;;;;;;;54.10;12.70;;;;;;6232468;23;19948;-95
2022/06/30 11:29:55;;;;;;;;;;;53.80;12.70;;;;;;6233101;23;19911;-94
2022/06/30 11:32:22;;;;;;;;;;;53.60;12.70;;;;;;6234752;23;19966;-94
2022/06/30 11:34:52;;;;;;;;;;;53.40;12.80;;;;;;6234339;23;19927;-94
2022/06/30 11:37:31;;;;;;;;;;;53.40;12.60;;;;;;6234552;23;19895;-95
2022/06/30 11:40:04;;;;;;;;;;;53.50;12.50;;;;;;6233529;23;19946;-93
2022/06/30 11:42:29;;;;;;;;;;;53.80;12.50;;;;;;6232635;22;19904;-95
2022/06/30 11:44:55;;;;;;;;;;;53.90;12.50;;;;;;6231941;23;19903;-95
2022/06/30 11:47:24;;;;;;;;;;;53.70;12.50;;;;;;6227755;23;20343;-94
2022/06/30 11:49:53;;;;;;;;;;;53.40;12.60;;;;;;6227791;23;19907;-95
2022/06/30 11:52:22;;;;;;;;;;;53.20;12.70;;;;;;6229139;23;19915;-96
2022/06/30 11:54:50;;;;;;;;;;;52.90;12.60;;;;;;6229674;23;20015;-94
2022/06/30 11:57:17;;;;;;;;;;;52.80;12.70;;;;;;6230284;23;19912;-95
2022/06/30 11:59:43;;;;;;;;;;;52.70;12.60;;;;;;6229716;23;19915;-95
2022/06/30 12:02:09;;;;;;;;;;;52.30;12.40;;;;;;6224734;23;20352;-95
2022/06/30 12:04:37;;;;;;;;;;;52.20;12.50;;;;;;6198983;23;19958;-96
2022/06/30 12:10:24;;;;;;;;;;;52.30;12.70;;;;;;6178831;23;19918;-91
2022/06/30 12:12:49;;;;;;;;;;;52.70;12.90;;;;;;6222060;23;19986;-91
2022/06/30 12:15:19;;;;;;;;;;;53.10;12.90;;;;;;6248962;23;19919;-91
2022/06/30 12:17:53;;;;;;;;;;;53.30;12.70;;;;;;6222539;23;19923;-91
2022/06/30 12:20:19;;;;;;;;;;;53.40;12.50;;;;;;6250262;23;19916;-91
2022/06/30 12:22:49;;;;;;;;;;;53.30;12.20;;;;;;6223353;23;19915;-91
2022/06/30 12:25:24;;;;;;;;;;;53.20;12.40;;;;;;6222633;23;19938;-91
2022/06/30 12:27:53;;;;;;;;;;;53.30;12.70;;;;;;6223588;23;19986;-92
2022/06/30 12:30:24;;;;;;;;;;;53.40;12.80;;;;;;6223984;23;19915;-92
2022/06/30 12:32:57;;;;;;;;;;;53.50;12.70;;;;;;6224018;23;19908;-91
2022/06/30 12:35:23;;;;;;;;;;;53.40;12.50;;;;;;6222260;23;19911;-90
2022/06/30 12:37:49;;;;;;;;;;;53.30;12.70;;;;;;6222234;23;19911;-91
2022/06/30 12:40:16;;;;;;;;;;;53.50;13.00;;;;;;6223097;23;19911;-92
2022/06/30 12:42:46;;;;;;;;;;;53.60;12.70;;;;;;6223393;23;19915;-91
2022/06/30 12:45:30;;;;;;;;;;;53.10;12.60;;;;;;6222447;23;20275;-90
2022/06/30 12:47:58;;;;;;;;;;;52.30;12.90;;;;;;6250378;23;19911;-91
2022/06/30 12:50:24;;;;;;;;;;;51.80;13.20;;;;;;6222742;23;19926;-90
2022/06/30 12:52:52;;;;;;;;;;;51.30;13.40;;;;;;6223094;23;19908;-91
2022/06/30 13:01:24;;;;;;;;;;;51.10;13.50;;;;;;6249838;23;19956;-91
2022/06/30 13:03:54;;;;;;;;;;;51.10;13.60;;;;;;6219356;23;19915;-90
2022/06/30 13:06:25;;;;;;;;;;;51.20;13.30;;;;;;6221754;23;19919;-90
2022/06/30 13:08:50;;;;;;;;;;;51.10;13.40;;;;;;6248669;23;19915;-91
2022/06/30 13:11:27;;;;;;;;;;;51.00;13.50;;;;;;6222589;23;19912;-90
2022/06/30 13:13:56;;;;;;;;;;;51.20;13.40;;;;;;6223150;23;19908;-90
2022/06/30 13:16:26;;;;;;;;;;;51.30;13.40;;;;;;6221754;23;19912;-90
2022/06/30 13:18:52;;;;;;;;;;;51.20;13.20;;;;;;6222217;23;19907;-91
2022/06/30 13:21:18;;;;;;;;;;;50.50;13.40;;;;;;6220020;23;19919;-90
2022/06/30 13:23:45;;;;;;;;;;;49.10;15.20;;;;;;6219984;23;20041;-90
2022/06/30 13:26:10;;;;;;;;;;;47.60;16.60;;;;;;6246463;23;19912;-90
2022/06/30 13:28:36;;;;;;;;;;;46.30;17.80;;;;;;6222662;23;19914;-90
2022/06/30 13:31:01;;;;;;;;;;;45.20;18.70;;;;;;6246625;23;19916;-88
2022/06/30 13:33:27;;;;;;;;;;;44.30;19.60;;;;;;6218933;23;19938;-89
2022/06/30 13:35:53;;;;;;;;;;;43.70;20.30;;;;;;6220130;23;19911;-89
2022/06/30 13:38:18;;;;;;;;;;;43.80;20.50;;;;;;6221174;23;19942;-89
2022/06/30 13:40:44;;;;;;;;;;;44.00;20.50;;;;;;6219889;23;19919;-89
2022/06/30 13:43:09;;;;;;;;;;;44.10;20.40;;;;;;6218702;23;20316;-90
2022/06/30 13:45:35;;;;;;;;;;;44.00;20.40;;;;;;6219197;23;20623;-90
2022/06/30 13:48:07;;;;;;;;;;;44.10;20.40;;;;;;6246069;23;19915;-90
2022/06/30 13:50:38;;;;;;;;;;;44.10;20.30;;;;;;6219001;23;19911;-90
2022/06/30 13:53:04;;;;;;;;;;;43.90;20.30;;;;;;6218891;23;19916;-91
2022/06/30 13:55:32;;;;;;;;;;;43.60;20.70;;;;;;6219978;23;20662;-90
2022/06/30 13:57:58;;;;;;;;;;;43.20;21.20;;;;;;6219073;23;20670;-90
2022/06/30 14:00:23;;;;;;;;;;;42.90;21.60;;;;;;6246804;23;19946;-90
2022/06/30 14:02:52;;;;;;;;;;;42.70;21.90;;;;;;6220487;23;19934;-90
2022/06/30 14:05:18;;;;;;;;;;;42.50;22.20;;;;;;6220902;23;19990;-89
2022/06/30 14:07:43;;;;;;;;;;;42.30;22.50;;;;;;6219007;23;20407;-90
2022/06/30 14:10:12;;;;;;;;;;;41.80;23.10;;;;;;6246935;23;19908;-90
2022/06/30 14:12:40;;;;;;;;;;;41.40;23.40;;;;;;6219531;23;19916;-90
2022/06/30 14:15:06;;;;;;;;;;;41.00;23.70;;;;;;6219720;23;19908;-90
2022/06/30 14:17:32;;;;;;;;;;;40.50;24.10;;;;;;6219441;23;19923;-90
2022/06/30 14:19:58;;;;;;;;;;;39.90;24.90;;;;;;6218951;23;20236;-91
2022/06/30 14:22:37;;;;;;;;;;;39.40;25.40;;;;;;6220954;23;19920;-91
2022/06/30 14:25:03;;;;;;;;;;;38.90;26.20;;;;;;6249056;23;20280;-91
2022/06/30 14:27:30;;;;;;;;;;;38.40;27.20;;;;;;6221392;23;19912;-91
2022/06/30 14:29:57;;;;;;;;;;;37.90;27.80;;;;;;6221945;23;19908;-94
2022/06/30 14:32:22;;;;;;;;;;;37.50;28.30;;;;;;6222356;23;19908;-92
2022/06/30 14:34:48;;;;;;;;;;;37.20;28.70;;;;;;6221331;23;19908;-92
2022/06/30 14:37:14;;;;;;;;;;;36.90;29.10;;;;;;6220715;23;20592;-91
2022/06/30 14:39:39;;;;;;;;;;;36.70;29.30;;;;;;6247441;23;19907;-89
2022/06/30 14:42:47;;;;;;;;;;;36.40;29.40;;;;;;6220920;23;20313;-90
2022/06/30 14:44:55;;;;;;;;;;;36.30;29.70;;;;;;6236701;23;19973;-91
2022/06/30 14:47:20;;;;;;;;;;;36.10;30.00;;;;;;6249793;23;19908;-94
2022/06/30 14:49:46;;;;;;;;;;;35.90;30.00;;;;;;6220903;23;19907;-89